sensor_id;sensor_type;location;lat;lon;timestamp;pressure;altitude;pressure_sealevel;temperature;humidity
8075;BME280;4080;42.676;23.372;2022-11-15T00:02:00;95679.78;;;4.60;100.00
8075;BME280;4080;42.676;23.372;2022-11-15T00:04:29;95677.81;;;4.55;100.00
8075;BME280;4080;42.676;23.372;2022-11-15T00:06:56;95681.06;;;4.51;100.00
8075;BME280;4080;42.676;23.372;2022-11-15T00:09:22;95678.66;;;4.49;100.00
8075;BME280;4080;42.676;23.372;2022-11-15T00:11:51;95683.13;;;4.42;100.00
8075;BME280;4080;42.676;23.372;2022-11-15T00:14:17;95683.47;;;4.21;100.00
8075;BME280;4080;42.676;23.372;2022-11-15T00:16:46;95648.69;;;3.95;100.00
8075;BME280;4080;42.676;23.372;2022-11-15T00:19:12;95680.69;;;4.16;100.00
8075;BME280;4080;42.676;23.372;2022-11-15T00:21:39;95678.84;;;4.23;100.00
8075;BME280;4080;42.676;23.372;2022-11-15T00:24:06;95676.44;;;4.21;100.00
8075;BME280;4080;42.676;23.372;2022-11-15T00:26:33;95662.84;;;4.13;100.00
8075;BME280;4080;42.676;23.372;2022-11-15T00:28:59;95643.19;;;4.10;100.00
8075;BME280;4080;42.676;23.372;2022-11-15T00:31:26;95670.78;;;4.24;100.00
8075;BME280;4080;42.676;23.372;2022-11-15T00:33:54;95671.47;;;4.13;100.00
8075;BME280;4080;42.676;23.372;2022-11-15T00:36:21;95666.16;;;4.01;100.00
8075;BME280;4080;42.676;23.372;2022-11-15T00:38:48;95663.31;;;4.03;100.00
8075;BME280;4080;42.676;23.372;2022-11-15T00:41:14;95651.28;;;3.95;100.00
8075;BME280;4080;42.676;23.372;2022-11-15T00:43:41;95656.19;;;3.85;100.00
8075;BME280;4080;42.676;23.372;2022-11-15T00:46:08;95659.47;;;3.74;100.00
8075;BME280;4080;42.676;23.372;2022-11-15T00:48:35;95655.69;;;3.70;100.00
8075;BME280;4080;42.676;23.372;2022-11-15T00:51:04;95655.47;;;3.71;100.00
8075;BME280;4080;42.676;23.372;2022-11-15T00:53:30;95651.47;;;3.69;100.00
8075;BME280;4080;42.676;23.372;2022-11-15T00:55:57;95653.66;;;3.65;100.00
8075;BME280;4080;42.676;23.372;2022-11-15T00:58:24;95647.66;;;3.65;100.00
8075;BME280;4080;42.676;23.372;2022-11-15T01:00:50;95660.31;;;3.68;100.00
8075;BME280;4080;42.676;23.372;2022-11-15T01:03:17;95649.06;;;3.61;100.00
8075;BME280;4080;42.676;23.372;2022-11-15T01:05:44;95643.69;;;3.56;100.00
8075;BME280;4080;42.676;23.372;2022-11-15T01:08:15;95646.13;;;3.51;100.00
8075;BME280;4080;42.676;23.372;2022-11-15T01:10:42;95646.16;;;3.44;100.00
8075;BME280;4080;42.676;23.372;2022-11-15T01:13:09;95653.38;;;3.42;100.00
8075;BME280;4080;42.676;23.372;2022-11-15T01:15:39;95650.78;;;3.35;100.00
8075;BME280;4080;42.676;23.372;2022-11-15T01:18:06;95633.78;;;3.26;100.00
8075;BME280;4080;42.676;23.372;2022-11-15T01:20:33;95639.97;;;3.38;100.00
8075;BME280;4080;42.676;23.372;2022-11-15T01:23:00;95639.34;;;3.43;100.00
8075;BME280;4080;42.676;23.372;2022-11-15T01:25:28;95643.13;;;3.47;100.00
8075;BME280;4080;42.676;23.372;2022-11-15T01:27:55;95645.50;;;3.55;100.00
8075;BME280;4080;42.676;23.372;2022-11-15T01:30:21;95636.63;;;3.63;100.00
8075;BME280;4080;42.676;23.372;2022-11-15T01:32:48;95636.22;;;3.66;100.00
8075;BME280;4080;42.676;23.372;2022-11-15T01:35:15;95643.44;;;3.70;100.00
8075;BME280;4080;42.676;23.372;2022-11-15T01:37:41;95639.00;;;3.71;100.00
8075;BME280;4080;42.676;23.372;2022-11-15T01:40:09;95641.19;;;3.74;100.00
8075;BME280;4080;42.676;23.372;2022-11-15T01:42:37;95639.78;;;3.78;100.00
8075;BME280;4080;42.676;23.372;2022-11-15T01:45:05;95636.75;;;3.81;100.00
8075;BME280;4080;42.676;23.372;2022-11-15T01:47:36;95637.31;;;3.83;100.00
8075;BME280;4080;42.676;23.372;2022-11-15T01:52:54;95613.94;;;3.70;100.00
8075;BME280;4080;42.676;23.372;2022-11-15T01:55:23;95638.16;;;3.77;100.00
8075;BME280;4080;42.676;23.372;2022-11-15T01:57:54;95634.06;;;3.56;100.00
8075;BME280;4080;42.676;23.372;2022-11-15T02:00:23;95639.56;;;3.35;100.00
8075;BME280;4080;42.676;23.372;2022-11-15T02:02:50;95636.22;;;3.21;100.00
8075;BME280;4080;42.676;23.372;2022-11-15T02:05:17;95616.41;;;3.07;100.00
8075;BME280;4080;42.676;23.372;2022-11-15T02:07:44;95638.03;;;3.21;100.00
8075;BME280;4080;42.676;23.372;2022-11-15T02:10:17;95594.78;;;3.00;100.00
8075;BME280;4080;42.676;23.372;2022-11-15T02:12:44;95639.19;;;3.25;100.00
8075;BME280;4080;42.676;23.372;2022-11-15T02:15:12;95631.19;;;3.26;100.00
8075;BME280;4080;42.676;23.372;2022-11-15T02:17:50;95635.97;;;3.29;100.00
8075;BME280;4080;42.676;23.372;2022-11-15T02:20:41;95628.56;;;3.26;100.00
8075;BME280;4080;42.676;23.372;2022-11-15T02:23:28;95631.19;;;3.26;100.00
8075;BME280;4080;42.676;23.372;2022-11-15T02:28:59;95629.34;;;3.33;100.00
8075;BME280;4080;42.676;23.372;2022-11-15T02:31:33;95637.59;;;3.24;100.00
8075;BME280;4080;42.676;23.372;2022-11-15T02:34:08;95637.66;;;3.10;100.00
8075;BME280;4080;42.676;23.372;2022-11-15T02:36:44;95632.06;;;3.07;100.00
8075;BME280;4080;42.676;23.372;2022-11-15T02:39:20;95630.63;;;3.04;100.00
8075;BME280;4080;42.676;23.372;2022-11-15T02:41:53;95629.66;;;2.99;100.00
8075;BME280;4080;42.676;23.372;2022-11-15T02:44:24;95618.03;;;2.95;100.00
8075;BME280;4080;42.676;23.372;2022-11-15T02:46:54;95628.25;;;2.96;100.00
8075;BME280;4080;42.676;23.372;2022-11-15T02:49:46;95626.47;;;2.90;100.00
8075;BME280;4080;42.676;23.372;2022-11-15T02:52:15;95626.09;;;2.87;100.00
8075;BME280;4080;42.676;23.372;2022-11-15T02:54:52;95629.91;;;2.71;100.00
8075;BME280;4080;42.676;23.372;2022-11-15T02:57:22;95617.53;;;2.40;100.00
8075;BME280;4080;42.676;23.372;2022-11-15T03:00:09;95629.34;;;2.36;100.00
8075;BME280;4080;42.676;23.372;2022-11-15T03:02:59;95591.50;;;2.07;100.00
8075;BME280;4080;42.676;23.372;2022-11-15T03:05:34;95632.97;;;2.28;100.00
8075;BME280;4080;42.676;23.372;2022-11-15T03:08:06;95631.38;;;2.27;100.00
8075;BME280;4080;42.676;23.372;2022-11-15T03:10:42;95620.56;;;2.24;100.00
8075;BME280;4080;42.676;23.372;2022-11-15T03:13:20;95624.75;;;2.25;100.00
8075;BME280;4080;42.676;23.372;2022-11-15T03:15:53;95620.56;;;2.24;100.00
8075;BME280;4080;42.676;23.372;2022-11-15T03:18:30;95622.97;;;2.18;100.00
8075;BME280;4080;42.676;23.372;2022-11-15T03:21:01;95619.34;;;2.06;100.00
8075;BME280;4080;42.676;23.372;2022-11-15T03:23:31;95616.31;;;2.09;100.00
8075;BME280;4080;42.676;23.372;2022-11-15T03:25:59;95621.97;;;2.20;100.00
8075;BME280;4080;42.676;23.372;2022-11-15T03:28:30;95620.56;;;2.24;100.00
8075;BME280;4080;42.676;23.372;2022-11-15T03:31:02;95615.34;;;2.24;100.00
8075;BME280;4080;42.676;23.372;2022-11-15T03:33:53;95614.34;;;2.25;100.00
8075;BME280;4080;42.676;23.372;2022-11-15T03:36:23;95610.94;;;2.17;100.00
8075;BME280;4080;42.676;23.372;2022-11-15T03:38:53;95616.94;;;2.25;100.00
8075;BME280;4080;42.676;23.372;2022-11-15T03:41:25;95607.13;;;2.27;100.00
8075;BME280;4080;42.676;23.372;2022-11-15T03:46:27;95612.94;;;2.22;100.00
8075;BME280;4080;42.676;23.372;2022-11-15T03:49:02;95597.34;;;2.15;100.00
8075;BME280;4080;42.676;23.372;2022-11-15T03:51:32;95606.16;;;2.14;100.00
8075;BME280;4080;42.676;23.372;2022-11-15T03:53:58;95598.91;;;2.10;100.00
8075;BME280;4080;42.676;23.372;2022-11-15T03:56:25;95539.47;;;1.74;100.00
8075;BME280;4080;42.676;23.372;2022-11-15T03:58:52;95599.13;;;2.08;100.00
8075;BME280;4080;42.676;23.372;2022-11-15T04:01:18;95593.50;;;2.11;100.00
8075;BME280;4080;42.676;23.372;2022-11-15T04:03:46;95592.13;;;2.15;100.00
8075;BME280;4080;42.676;23.372;2022-11-15T04:06:13;95598.53;;;2.20;100.00
8075;BME280;4080;42.676;23.372;2022-11-15T04:08:40;95597.31;;;2.22;100.00
8075;BME280;4080;42.676;23.372;2022-11-15T04:11:07;95593.13;;;2.28;100.00
8075;BME280;4080;42.676;23.372;2022-11-15T04:13:34;95590.09;;;2.31;100.00
8075;BME280;4080;42.676;23.372;2022-11-15T04:16:00;95588.50;;;2.30;100.00
8075;BME280;4080;42.676;23.372;2022-11-15T04:18:27;95585.50;;;2.33;100.00
8075;BME280;4080;42.676;23.372;2022-11-15T04:20:55;95585.09;;;2.36;100.00
8075;BME280;4080;42.676;23.372;2022-11-15T04:23:39;95588.72;;;2.28;100.00
8075;BME280;4080;42.676;23.372;2022-11-15T04:26:25;95570.69;;;2.20;100.00
8075;BME280;4080;42.676;23.372;2022-11-15T04:28:52;95575.31;;;2.18;100.00
8075;BME280;4080;42.676;23.372;2022-11-15T04:31:36;95578.50;;;2.20;100.00
8075;BME280;4080;42.676;23.372;2022-11-15T04:34:02;95572.09;;;2.09;100.00
8075;BME280;4080;42.676;23.372;2022-11-15T04:36:30;95586.31;;;2.07;100.00
8075;BME280;4080;42.676;23.372;2022-11-15T04:39:15;95579.91;;;1.96;100.00
8075;BME280;4080;42.676;23.372;2022-11-15T04:41:42;95582.91;;;1.93;100.00
8075;BME280;4080;42.676;23.372;2022-11-15T04:44:09;95583.50;;;1.95;100.00
8075;BME280;4080;42.676;23.372;2022-11-15T04:46:35;95572.09;;;2.03;100.00
8075;BME280;4080;42.676;23.372;2022-11-15T04:49:02;95577.53;;;2.14;100.00
8075;BME280;4080;42.676;23.372;2022-11-15T04:51:30;95583.31;;;2.16;100.00
8075;BME280;4080;42.676;23.372;2022-11-15T04:53:57;95575.09;;;2.20;100.00
8075;BME280;4080;42.676;23.372;2022-11-15T04:56:24;95586.31;;;2.27;100.00
8075;BME280;4080;42.676;23.372;2022-11-15T04:58:50;95578.69;;;2.32;100.00
8075;BME280;4080;42.676;23.372;2022-11-15T05:01:17;95585.69;;;2.38;100.00
8075;BME280;4080;42.676;23.372;2022-11-15T05:03:44;95577.69;;;2.46;100.00
8075;BME280;4080;42.676;23.372;2022-11-15T05:06:30;95568.88;;;2.47;100.00
8075;BME280;4080;42.676;23.372;2022-11-15T05:08:57;95538.25;;;2.29;100.00
8075;BME280;4080;42.676;23.372;2022-11-15T05:11:24;95595.25;;;2.70;100.00
8075;BME280;4080;42.676;23.372;2022-11-15T05:13:52;95588.00;;;2.86;100.00
8075;BME280;4080;42.676;23.372;2022-11-15T05:16:19;95594.78;;;3.00;100.00
8075;BME280;4080;42.676;23.372;2022-11-15T05:18:46;95586.75;;;3.08;100.00
8075;BME280;4080;42.676;23.372;2022-11-15T05:21:14;95585.53;;;3.10;100.00
8075;BME280;4080;42.676;23.372;2022-11-15T05:23:42;95581.09;;;3.18;100.00
8075;BME280;4080;42.676;23.372;2022-11-15T05:26:09;95586.59;;;3.34;100.00
8075;BME280;4080;42.676;23.372;2022-11-15T05:28:36;95576.38;;;3.33;100.00
8075;BME280;4080;42.676;23.372;2022-11-15T05:31:05;95582.19;;;3.35;100.00
8075;BME280;4080;42.676;23.372;2022-11-15T05:33:32;95594.22;;;3.42;100.00
8075;BME280;4080;42.676;23.372;2022-11-15T05:36:03;95571.97;;;3.33;100.00
8075;BME280;4080;42.676;23.372;2022-11-15T05:38:31;95573.94;;;3.45;100.00
8075;BME280;4080;42.676;23.372;2022-11-15T05:41:00;95577.72;;;3.49;100.00
8075;BME280;4080;42.676;23.372;2022-11-15T05:43:30;95587.47;;;3.60;100.00
8075;BME280;4080;42.676;23.372;2022-11-15T05:45:59;95588.44;;;3.65;100.00
8075;BME280;4080;42.676;23.372;2022-11-15T05:48:27;95590.44;;;3.70;100.00
8075;BME280;4080;42.676;23.372;2022-11-15T05:50:54;95576.81;;;3.68;100.00
8075;BME280;4080;42.676;23.372;2022-11-15T05:53:22;95594.97;;;3.81;100.00
8075;BME280;4080;42.676;23.372;2022-11-15T05:55:50;95577.72;;;3.80;100.00
8075;BME280;4080;42.676;23.372;2022-11-15T05:58:19;95590.69;;;3.93;100.00
8075;BME280;4080;42.676;23.372;2022-11-15T06:00:47;95591.03;;;4.03;100.00
8075;BME280;4080;42.676;23.372;2022-11-15T06:03:13;95595.75;;;4.13;100.00
8075;BME280;4080;42.676;23.372;2022-11-15T06:05:40;95584.09;;;4.16;100.00
8075;BME280;4080;42.676;23.372;2022-11-15T06:08:07;95598.47;;;4.25;100.00
8075;BME280;4080;42.676;23.372;2022-11-15T06:10:34;95599.84;;;4.27;100.00
8075;BME280;4080;42.676;23.372;2022-11-15T06:13:02;95587.22;;;4.24;100.00
8075;BME280;4080;42.676;23.372;2022-11-15T06:15:31;95590.81;;;4.30;100.00
8075;BME280;4080;42.676;23.372;2022-11-15T06:17:58;95600.13;;;4.44;100.00
8075;BME280;4080;42.676;23.372;2022-11-15T06:20:26;95579.22;;;4.44;100.00
8075;BME280;4080;42.676;23.372;2022-11-15T06:22:56;95606.25;;;4.56;100.00
8075;BME280;4080;42.676;23.372;2022-11-15T06:25:23;95586.22;;;4.50;100.00
8075;BME280;4080;42.676;23.372;2022-11-15T06:27:51;95597.59;;;4.56;100.00
8075;BME280;4080;42.676;23.372;2022-11-15T06:30:18;95598.09;;;4.46;100.00
8075;BME280;4080;42.676;23.372;2022-11-15T06:32:46;95602.53;;;4.46;100.00
8075;BME280;4080;42.676;23.372;2022-11-15T06:35:13;95599.63;;;4.54;100.00
8075;BME280;4080;42.676;23.372;2022-11-15T06:37:41;95584.59;;;4.49;100.00
8075;BME280;4080;42.676;23.372;2022-11-15T06:40:09;95590.56;;;4.56;100.00
8075;BME280;4080;42.676;23.372;2022-11-15T06:42:36;95588.94;;;4.62;100.00
8075;BME280;4080;42.676;23.372;2022-11-15T06:45:03;95593.34;;;4.61;100.00
8075;BME280;4080;42.676;23.372;2022-11-15T06:47:30;95599.31;;;4.68;100.00
8075;BME280;4080;42.676;23.372;2022-11-15T06:49:58;95595.03;;;4.74;100.00
8075;BME280;4080;42.676;23.372;2022-11-15T06:52:25;95587.69;;;4.83;100.00
8075;BME280;4080;42.676;23.372;2022-11-15T06:54:52;95592.25;;;4.87;100.00
8075;BME280;4080;42.676;23.372;2022-11-15T06:57:18;95603.13;;;4.91;100.00
8075;BME280;4080;42.676;23.372;2022-11-15T06:59:45;95599.25;;;4.93;100.00
8075;BME280;4080;42.676;23.372;2022-11-15T07:02:12;95554.22;;;4.73;100.00
8075;BME280;4080;42.676;23.372;2022-11-15T07:04:39;95600.94;;;5.06;100.00
8075;BME280;4080;42.676;23.372;2022-11-15T07:07:08;95598.88;;;5.08;100.00
8075;BME280;4080;42.676;23.372;2022-11-15T07:09:34;95589.38;;;5.14;100.00
8075;BME280;4080;42.676;23.372;2022-11-15T07:12:01;95591.41;;;5.12;100.00
8075;BME280;4080;42.676;23.372;2022-11-15T07:14:28;95590.03;;;5.09;100.00
8075;BME280;4080;42.676;23.372;2022-11-15T07:16:54;95592.06;;;5.07;100.00
8075;BME280;4080;42.676;23.372;2022-11-15T07:19:21;95583.50;;;5.00;100.00
8075;BME280;4080;42.676;23.372;2022-11-15T07:21:48;95579.72;;;4.96;100.00
8075;BME280;4080;42.676;23.372;2022-11-15T07:24:16;95578.84;;;5.02;100.00
8075;BME280;4080;42.676;23.372;2022-11-15T07:26:43;95574.50;;;4.96;100.00
8075;BME280;4080;42.676;23.372;2022-11-15T07:29:09;95578.19;;;5.07;100.00
8075;BME280;4080;42.676;23.372;2022-11-15T07:31:36;95584.78;;;5.09;100.00
8075;BME280;4080;42.676;23.372;2022-11-15T07:34:03;95590.16;;;5.14;100.00
8075;BME280;4080;42.676;23.372;2022-11-15T07:36:30;95586.03;;;5.07;100.00
8075;BME280;4080;42.676;23.372;2022-11-15T07:38:56;95583.91;;;5.15;100.00
8075;BME280;4080;42.676;23.372;2022-11-15T07:41:24;95571.00;;;5.20;100.00
8075;BME280;4080;42.676;23.372;2022-11-15T07:43:51;95586.97;;;5.30;100.00
8075;BME280;4080;42.676;23.372;2022-11-15T07:46:18;95589.13;;;5.34;100.00
8075;BME280;4080;42.676;23.372;2022-11-15T07:48:45;95565.25;;;5.30;100.00
8075;BME280;4080;42.676;23.372;2022-11-15T07:51:12;95587.22;;;5.41;100.00
8075;BME280;4080;42.676;23.372;2022-11-15T07:53:40;95578.94;;;5.44;100.00
8075;BME280;4080;42.676;23.372;2022-11-15T07:56:07;95571.66;;;5.46;100.00
8075;BME280;4080;42.676;23.372;2022-11-15T07:58:35;95584.47;;;5.54;100.00
8075;BME280;4080;42.676;23.372;2022-11-15T08:01:03;95582.53;;;5.61;100.00
8075;BME280;4080;42.676;23.372;2022-11-15T08:03:30;95582.66;;;5.66;100.00
8075;BME280;4080;42.676;23.372;2022-11-15T08:05:56;95581.22;;;5.70;100.00
8075;BME280;4080;42.676;23.372;2022-11-15T08:08:23;95570.28;;;5.73;100.00
8075;BME280;4080;42.676;23.372;2022-11-15T08:10:50;95583.03;;;5.81;100.00
8075;BME280;4080;42.676;23.372;2022-11-15T08:13:16;95571.44;;;5.77;100.00
8075;BME280;4080;42.676;23.372;2022-11-15T08:15:45;95576.16;;;5.87;100.00
8075;BME280;4080;42.676;23.372;2022-11-15T08:18:13;95572.44;;;5.95;100.00
8075;BME280;4080;42.676;23.372;2022-11-15T08:20:40;95548.03;;;5.82;100.00
8075;BME280;4080;42.676;23.372;2022-11-15T08:23:09;95568.78;;;5.96;100.00
8075;BME280;4080;42.676;23.372;2022-11-15T08:25:37;95579.16;;;6.02;100.00
8075;BME280;4080;42.676;23.372;2022-11-15T08:28:05;95557.88;;;5.99;100.00
8075;BME280;4080;42.676;23.372;2022-11-15T08:30:35;95566.63;;;6.04;100.00
8075;BME280;4080;42.676;23.372;2022-11-15T08:33:04;95569.75;;;6.13;100.00
8075;BME280;4080;42.676;23.372;2022-11-15T08:35:31;95576.56;;;6.14;100.00
8075;BME280;4080;42.676;23.372;2022-11-15T08:37:58;95566.31;;;6.12;100.00
8075;BME280;4080;42.676;23.372;2022-11-15T08:40:25;95570.31;;;6.15;100.00
8075;BME280;4080;42.676;23.372;2022-11-15T08:42:52;95562.53;;;6.08;100.00
8075;BME280;4080;42.676;23.372;2022-11-15T08:45:19;95556.84;;;6.00;100.00
8075;BME280;4080;42.676;23.372;2022-11-15T08:47:45;95552.19;;;6.02;100.00
8075;BME280;4080;42.676;23.372;2022-11-15T08:50:14;95553.75;;;6.03;100.00
8075;BME280;4080;42.676;23.372;2022-11-15T08:52:41;95552.28;;;5.95;100.00
8075;BME280;4080;42.676;23.372;2022-11-15T08:55:08;95548.44;;;5.79;100.00
8075;BME280;4080;42.676;23.372;2022-11-15T08:57:35;95558.50;;;5.82;100.00
8075;BME280;4080;42.676;23.372;2022-11-15T09:00:02;95549.75;;;5.88;100.00
8075;BME280;4080;42.676;23.372;2022-11-15T09:02:29;95543.41;;;5.96;100.00
8075;BME280;4080;42.676;23.372;2022-11-15T09:04:56;95525.63;;;5.98;100.00
8075;BME280;4080;42.676;23.372;2022-11-15T09:07:24;95537.53;;;6.12;100.00
8075;BME280;4080;42.676;23.372;2022-11-15T09:09:51;95538.41;;;6.06;100.00
8075;BME280;4080;42.676;23.372;2022-11-15T09:12:17;95532.94;;;6.08;100.00
8075;BME280;4080;42.676;23.372;2022-11-15T09:14:44;95525.06;;;6.08;100.00
8075;BME280;4080;42.676;23.372;2022-11-15T09:17:11;95520.19;;;6.11;100.00
8075;BME280;4080;42.676;23.372;2022-11-15T09:19:38;95529.53;;;6.19;100.00
8075;BME280;4080;42.676;23.372;2022-11-15T09:22:05;95517.13;;;6.26;100.00
8075;BME280;4080;42.676;23.372;2022-11-15T09:24:34;95517.34;;;6.36;100.00
8075;BME280;4080;42.676;23.372;2022-11-15T09:27:01;95518.47;;;6.40;100.00
8075;BME280;4080;42.676;23.372;2022-11-15T09:29:28;95514.03;;;6.41;100.00
8075;BME280;4080;42.676;23.372;2022-11-15T09:31:55;95516.31;;;6.49;100.00
8075;BME280;4080;42.676;23.372;2022-11-15T09:34:22;95490.91;;;6.49;100.00
8075;BME280;4080;42.676;23.372;2022-11-15T09:36:49;95498.28;;;6.64;100.00
8075;BME280;4080;42.676;23.372;2022-11-15T09:39:15;95500.34;;;6.74;100.00
8075;BME280;4080;42.676;23.372;2022-11-15T09:44:58;95488.56;;;6.88;100.00
8075;BME280;4080;42.676;23.372;2022-11-15T09:47:41;95497.31;;;6.94;100.00
8075;BME280;4080;42.676;23.372;2022-11-15T09:50:25;95489.44;;;6.94;100.00
8075;BME280;4080;42.676;23.372;2022-11-15T09:52:56;95488.84;;;7.03;100.00
8075;BME280;4080;42.676;23.372;2022-11-15T09:55:31;95478.56;;;7.13;100.00
8075;BME280;4080;42.676;23.372;2022-11-15T09:58:04;95479.63;;;7.29;100.00
8075;BME280;4080;42.676;23.372;2022-11-15T10:00:37;95476.16;;;7.40;100.00
8075;BME280;4080;42.676;23.372;2022-11-15T10:03:10;95473.31;;;7.59;100.00
8075;BME280;4080;42.676;23.372;2022-11-15T10:05:39;95456.56;;;7.76;100.00
8075;BME280;4080;42.676;23.372;2022-11-15T10:08:18;95469.06;;;8.03;100.00
8075;BME280;4080;42.676;23.372;2022-11-15T10:10:50;95470.22;;;8.29;100.00
8075;BME280;4080;42.676;23.372;2022-11-15T10:13:22;95458.78;;;8.57;100.00
8075;BME280;4080;42.676;23.372;2022-11-15T10:15:51;95462.28;;;8.84;100.00
8075;BME280;4080;42.676;23.372;2022-11-15T10:18:25;95465.25;;;9.15;100.00
8075;BME280;4080;42.676;23.372;2022-11-15T10:20:58;95459.72;;;9.38;100.00
8075;BME280;4080;42.676;23.372;2022-11-15T10:23:27;95468.31;;;9.55;100.00
8075;BME280;4080;42.676;23.372;2022-11-15T10:25:56;95442.59;;;9.68;100.00
8075;BME280;4080;42.676;23.372;2022-11-15T10:28:40;95456.66;;;10.10;100.00
8075;BME280;4080;42.676;23.372;2022-11-15T10:31:22;95394.56;;;9.92;100.00
8075;BME280;4080;42.676;23.372;2022-11-15T10:34:14;95445.34;;;10.57;100.00
8075;BME280;4080;42.676;23.372;2022-11-15T10:36:44;95449.69;;;10.83;100.00
8075;BME280;4080;42.676;23.372;2022-11-15T10:39:12;95441.81;;;10.99;100.00
8075;BME280;4080;42.676;23.372;2022-11-15T10:41:40;95430.00;;;11.22;100.00
8075;BME280;4080;42.676;23.372;2022-11-15T10:44:21;95426.63;;;11.57;100.00
8075;BME280;4080;42.676;23.372;2022-11-15T10:47:20;95428.25;;;11.78;100.00
8075;BME280;4080;42.676;23.372;2022-11-15T10:50:04;95424.00;;;12.12;100.00
8075;BME280;4080;42.676;23.372;2022-11-15T10:52:33;95421.31;;;12.38;100.00
8075;BME280;4080;42.676;23.372;2022-11-15T10:55:12;95418.34;;;12.55;100.00
8075;BME280;4080;42.676;23.372;2022-11-15T10:57:49;95414.91;;;12.54;100.00
8075;BME280;4080;42.676;23.372;2022-11-15T11:00:30;95415.69;;;12.55;100.00
8075;BME280;4080;42.676;23.372;2022-11-15T11:02:59;95394.59;;;12.34;100.00
8075;BME280;4080;42.676;23.372;2022-11-15T11:05:28;95399.66;;;12.26;100.00
8075;BME280;4080;42.676;23.372;2022-11-15T11:07:59;95380.34;;;12.15;100.00
8075;BME280;4080;42.676;23.372;2022-11-15T11:10:27;95247.28;;;11.35;100.00
8075;BME280;4080;42.676;23.372;2022-11-15T11:12:54;95372.16;;;12.27;100.00
8075;BME280;4080;42.676;23.372;2022-11-15T11:15:22;95366.63;;;12.13;100.00
8075;BME280;4080;42.676;23.372;2022-11-15T11:17:58;95379.78;;;12.38;100.00
8075;BME280;4080;42.676;23.372;2022-11-15T11:20:31;95381.63;;;12.38;100.00
8075;BME280;4080;42.676;23.372;2022-11-15T11:23:16;95377.44;;;12.27;100.00
8075;BME280;4080;42.676;23.372;2022-11-15T11:25:51;95370.00;;;12.24;100.00
8075;BME280;4080;42.676;23.372;2022-11-15T11:28:37;95365.53;;;12.19;100.00
8075;BME280;4080;42.676;23.372;2022-11-15T11:31:16;95361.06;;;12.09;100.00
8075;BME280;4080;42.676;23.372;2022-11-15T11:33:57;95346.84;;;11.85;100.00
8075;BME280;4080;42.676;23.372;2022-11-15T11:36:35;95336.53;;;11.78;100.00
8075;BME280;4080;42.676;23.372;2022-11-15T11:39:18;95332.06;;;11.64;100.00
8075;BME280;4080;42.676;23.372;2022-11-15T11:41:55;95325.16;;;11.52;100.00
8075;BME280;4080;42.676;23.372;2022-11-15T11:44:32;95315.16;;;11.39;100.00
8075;BME280;4080;42.676;23.372;2022-11-15T11:47:00;95313.56;;;11.13;100.00
8075;BME280;4080;42.676;23.372;2022-11-15T11:49:34;95299.28;;;10.99;100.00
8075;BME280;4080;42.676;23.372;2022-11-15T11:52:09;95294.50;;;10.85;100.00
8075;BME280;4080;42.676;23.372;2022-11-15T11:54:45;95303.50;;;10.89;100.00
8075;BME280;4080;42.676;23.372;2022-11-15T11:57:25;95297.69;;;10.77;100.00
8075;BME280;4080;42.676;23.372;2022-11-15T11:59:58;95296.59;;;10.68;100.00
8075;BME280;4080;42.676;23.372;2022-11-15T12:02:30;95259.91;;;10.56;100.00
8075;BME280;4080;42.676;23.372;2022-11-15T12:05:05;95275.22;;;10.70;100.00
8075;BME280;4080;42.676;23.372;2022-11-15T12:07:36;95272.31;;;10.61;100.00
8075;BME280;4080;42.676;23.372;2022-11-15T12:10:16;95281.53;;;10.64;100.00
8075;BME280;4080;42.676;23.372;2022-11-15T12:12:50;95273.88;;;10.52;100.00
8075;BME280;4080;42.676;23.372;2022-11-15T12:15:22;95246.38;;;10.33;100.00
8075;BME280;4080;42.676;23.372;2022-11-15T12:17:50;95265.88;;;10.21;100.00
8075;BME280;4080;42.676;23.372;2022-11-15T12:20:20;95260.50;;;10.06;100.00
8075;BME280;4080;42.676;23.372;2022-11-15T12:22:53;95255.75;;;10.08;100.00
8075;BME280;4080;42.676;23.372;2022-11-15T12:25:26;95227.22;;;9.85;100.00
8075;BME280;4080;42.676;23.372;2022-11-15T12:27:58;95240.97;;;9.97;100.00
8075;BME280;4080;42.676;23.372;2022-11-15T12:30:36;95242.59;;;10.08;100.00
8075;BME280;4080;42.676;23.372;2022-11-15T12:33:09;95231.81;;;10.15;100.00
8075;BME280;4080;42.676;23.372;2022-11-15T12:35:59;95239.78;;;10.25;100.00
8075;BME280;4080;42.676;23.372;2022-11-15T12:38:53;95232.94;;;10.29;100.00
8075;BME280;4080;42.676;23.372;2022-11-15T12:41:21;95238.22;;;10.29;100.00
8075;BME280;4080;42.676;23.372;2022-11-15T12:43:49;95223.38;;;10.13;100.00
8075;BME280;4080;42.676;23.372;2022-11-15T12:49:09;95213.41;;;10.25;100.00
8075;BME280;4080;42.676;23.372;2022-11-15T12:52:05;95208.09;;;10.20;100.00
8075;BME280;4080;42.676;23.372;2022-11-15T12:57:50;95222.13;;;10.25;100.00
8075;BME280;4080;42.676;23.372;2022-11-15T13:00:43;95215.53;;;10.28;100.00
8075;BME280;4080;42.676;23.372;2022-11-15T13:03:19;95212.09;;;10.33;100.00
8075;BME280;4080;42.676;23.372;2022-11-15T13:05:59;95194.44;;;10.28;100.00
8075;BME280;4080;42.676;23.372;2022-11-15T13:08:54;95208.41;;;10.34;100.00
8075;BME280;4080;42.676;23.372;2022-11-15T13:11:43;95205.25;;;10.26;100.00
8075;BME280;4080;42.676;23.372;2022-11-15T13:17:35;95187.53;;;10.12;100.00
8075;BME280;4080;42.676;23.372;2022-11-15T13:20:21;95190.16;;;10.12;100.00
8075;BME280;4080;42.676;23.372;2022-11-15T13:22:49;95148.19;;;9.80;100.00
8075;BME280;4080;42.676;23.372;2022-11-15T13:25:40;95178.03;;;10.11;100.00
8075;BME280;4080;42.676;23.372;2022-11-15T13:28:21;95177.00;;;10.17;100.00
8075;BME280;4080;42.676;23.372;2022-11-15T13:30:51;95183.63;;;10.24;100.00
8075;BME280;4080;42.676;23.372;2022-11-15T13:33:20;95180.19;;;10.29;100.00
8075;BME280;4080;42.676;23.372;2022-11-15T13:35:50;95176.78;;;10.34;100.00
8075;BME280;4080;42.676;23.372;2022-11-15T13:38:22;95161.47;;;10.31;100.00
8075;BME280;4080;42.676;23.372;2022-11-15T13:40:53;95170.97;;;10.37;100.00
8075;BME280;4080;42.676;23.372;2022-11-15T13:43:27;95175.47;;;10.36;100.00
8075;BME280;4080;42.676;23.372;2022-11-15T13:46:12;95168.59;;;10.35;100.00
8075;BME280;4080;42.676;23.372;2022-11-15T13:48:40;95157.00;;;10.21;100.00